createdAt,value
2023-01-15T00:00:56.539Z,98994.75
2023-01-15T00:03:23.062Z,98980.03
2023-01-15T00:05:49.576Z,99013.53
2023-01-15T00:08:16.071Z,98992.59
2023-01-15T00:10:42.629Z,99017.66
2023-01-15T00:13:10.646Z,99019.31
2023-01-15T00:15:37.205Z,99022.72
2023-01-15T00:18:04.023Z,99030.53
2023-01-15T00:20:30.561Z,99028.88
2023-01-15T00:22:57.089Z,99032.16
2023-01-15T00:25:23.585Z,99030.41
2023-01-15T00:27:50.049Z,99041.78
2023-01-15T00:30:18.030Z,99044.75
2023-01-15T00:32:44.889Z,99042.53
2023-01-15T00:35:13.351Z,99043.16
2023-01-15T00:37:41.451Z,99044.44
2023-01-15T00:40:10.921Z,99035.53
2023-01-15T00:42:38.455Z,99033.63
2023-01-15T00:45:06.073Z,99030.16
2023-01-15T00:47:34.398Z,99026.66
2023-01-15T00:50:00.930Z,99024.63
2023-01-15T00:52:29.566Z,99023.34
2023-01-15T00:54:56.099Z,99014.88
2023-01-15T00:57:22.714Z,99003.88
2023-01-15T00:59:49.243Z,99001.94
2023-01-15T01:02:15.972Z,99000.38
2023-01-15T01:04:43.861Z,98991.03
2023-01-15T01:07:10.719Z,98993.38
2023-01-15T01:09:37.286Z,98990.00
2023-01-15T01:12:04.352Z,98975.41
2023-01-15T01:14:30.878Z,98979.81
2023-01-15T01:16:57.473Z,98988.13
2023-01-15T01:19:25.322Z,99007.63
2023-01-15T01:21:53.150Z,99008.00
2023-01-15T01:24:22.120Z,99006.53
2023-01-15T01:26:50.165Z,99007.59
2023-01-15T01:29:20.083Z,98991.28
2023-01-15T01:31:46.758Z,99003.78
2023-01-15T01:34:13.874Z,99016.63
2023-01-15T01:36:42.303Z,99020.88
2023-01-15T01:39:13.695Z,99003.22
2023-01-15T01:41:42.052Z,99021.94
2023-01-15T01:44:47.103Z,99017.19
2023-01-15T01:47:16.886Z,99009.00
2023-01-15T01:49:44.964Z,99019.84
2023-01-15T01:52:16.577Z,99007.91
2023-01-15T01:54:47.057Z,98994.38
2023-01-15T01:57:16.003Z,99013.50
2023-01-15T01:59:43.114Z,99014.69
2023-01-15T02:02:09.794Z,99027.53
2023-01-15T02:04:37.462Z,99031.78
2023-01-15T02:07:05.583Z,99034.81
2023-01-15T02:09:32.669Z,99022.69
2023-01-15T02:12:08.923Z,99011.56
2023-01-15T02:14:41.920Z,98996.59
2023-01-15T02:17:15.127Z,99001.66
2023-01-15T02:19:51.699Z,99007.72
2023-01-15T02:22:29.991Z,99008.91
2023-01-15T02:25:07.019Z,99021.56
2023-01-15T02:27:37.615Z,99010.56
2023-01-15T02:30:10.328Z,99003.75
2023-01-15T02:32:52.268Z,98998.34
2023-01-15T02:35:23.561Z,99008.06
2023-01-15T02:37:54.534Z,98994.75
2023-01-15T02:40:26.055Z,98987.78
2023-01-15T02:42:56.487Z,98992.28
2023-01-15T02:45:27.587Z,98979.16
2023-01-15T02:48:03.766Z,98983.94
2023-01-15T02:50:36.045Z,98983.72
2023-01-15T02:53:06.794Z,98974.00
2023-01-15T02:55:42.274Z,98989.38
2023-01-15T02:58:16.354Z,98979.16
2023-01-15T03:00:49.542Z,98990.91
2023-01-15T03:03:24.028Z,98980.81
2023-01-15T03:05:57.044Z,98989.06
2023-01-15T03:08:24.038Z,98990.81
2023-01-15T03:10:59.408Z,99001.09
2023-01-15T03:13:40.660Z,99008.63
2023-01-15T03:16:14.508Z,98994.88
2023-01-15T03:18:47.555Z,99000.84
2023-01-15T03:21:20.903Z,98970.34
2023-01-15T03:23:52.227Z,98957.94
2023-01-15T03:26:19.019Z,98959.53
2023-01-15T03:28:49.116Z,98972.94
2023-01-15T03:31:16.379Z,98972.75
2023-01-15T03:33:43.758Z,98968.97
2023-01-15T03:36:15.088Z,98956.66
2023-01-15T03:38:46.199Z,98939.69
2023-01-15T03:41:30.070Z,98952.38
2023-01-15T03:44:07.327Z,98956.50
2023-01-15T03:46:51.398Z,98966.03
2023-01-15T03:49:26.484Z,98969.81
2023-01-15T03:52:01.932Z,98962.75
2023-01-15T03:54:38.791Z,98951.44
2023-01-15T03:57:10.920Z,98967.88
2023-01-15T03:59:46.573Z,98968.44
2023-01-15T04:02:14.850Z,98972.09
2023-01-15T04:04:43.992Z,98975.88
2023-01-15T04:07:10.961Z,98975.97
2023-01-15T04:09:40.426Z,98957.94
2023-01-15T04:12:10.091Z,98965.13
2023-01-15T04:14:42.205Z,98974.94
2023-01-15T04:17:14.616Z,98959.78
2023-01-15T04:19:41.103Z,98961.63
2023-01-15T04:22:09.999Z,98967.97
2023-01-15T04:24:36.924Z,98967.97
2023-01-15T04:27:03.539Z,98963.81
2023-01-15T04:29:30.049Z,98966.28
2023-01-15T04:31:58.051Z,98971.81
2023-01-15T04:34:25.283Z,98971.63
2023-01-15T04:36:51.802Z,98980.25
2023-01-15T04:39:18.501Z,98976.31
2023-01-15T04:41:45.050Z,98959.88
2023-01-15T04:44:11.538Z,98967.88
2023-01-15T04:46:40.285Z,98962.00
2023-01-15T04:49:10.821Z,98969.41
2023-01-15T04:51:37.497Z,98979.81
2023-01-15T04:54:04.988Z,98988.00
2023-01-15T04:56:31.771Z,98985.13
2023-01-15T04:59:00.030Z,98986.13
2023-01-15T05:01:26.567Z,98994.38
2023-01-15T05:03:53.334Z,98982.25
2023-01-15T05:06:21.235Z,98977.78
2023-01-15T05:08:47.834Z,98972.94
2023-01-15T05:11:14.354Z,98995.22
2023-01-15T05:13:40.876Z,98988.06
2023-01-15T05:16:12.508Z,98990.00
2023-01-15T05:18:39.334Z,98988.81
2023-01-15T05:21:06.051Z,98986.69
2023-01-15T05:23:33.879Z,98987.41
2023-01-15T05:26:03.573Z,98998.25
2023-01-15T05:28:30.047Z,98994.59
2023-01-15T05:30:56.563Z,98988.91
2023-01-15T05:33:23.147Z,98971.44
2023-01-15T05:35:49.587Z,98972.94
2023-01-15T05:38:16.054Z,98973.75
2023-01-15T05:40:43.867Z,98970.28
2023-01-15T05:43:10.333Z,98970.44
2023-01-15T05:45:36.820Z,98961.63
2023-01-15T05:48:03.690Z,98982.66
2023-01-15T05:50:30.178Z,98959.41
2023-01-15T05:52:56.698Z,98966.50
2023-01-15T05:55:23.205Z,98973.28
2023-01-15T05:57:51.061Z,98970.06
2023-01-15T06:00:18.766Z,98984.56
2023-01-15T06:02:48.748Z,98988.50
2023-01-15T06:05:15.393Z,98976.06
2023-01-15T06:07:41.857Z,98986.59
2023-01-15T06:10:09.279Z,98990.53
2023-01-15T06:12:35.814Z,99002.56
2023-01-15T06:15:04.283Z,99005.59
2023-01-15T06:17:30.732Z,99013.66
2023-01-15T06:19:57.232Z,99024.84
2023-01-15T06:22:24.017Z,99015.03
2023-01-15T06:24:50.489Z,99023.31
2023-01-15T06:27:16.997Z,99027.31
2023-01-15T06:29:43.481Z,99013.84
2023-01-15T06:32:11.364Z,99017.00
2023-01-15T06:34:37.858Z,99012.56
2023-01-15T06:37:04.304Z,99009.25
2023-01-15T06:39:30.798Z,99012.56
2023-01-15T06:41:57.278Z,99023.06
2023-01-15T06:44:23.891Z,99024.06
2023-01-15T06:46:51.395Z,99022.06
2023-01-15T06:49:19.283Z,99025.16
2023-01-15T06:51:45.853Z,99017.88
2023-01-15T06:54:12.397Z,99023.69
2023-01-15T06:56:38.892Z,99025.66
2023-01-15T06:59:05.370Z,99032.84
2023-01-15T07:01:31.878Z,99030.47
2023-01-15T07:03:58.403Z,99028.72
2023-01-15T07:06:26.557Z,99041.59
2023-01-15T07:08:53.292Z,99043.16
2023-01-15T07:11:19.786Z,99044.13
2023-01-15T07:13:46.294Z,99055.19
2023-01-15T07:16:12.792Z,99048.75
2023-01-15T07:18:39.301Z,99042.97
2023-01-15T07:21:06.176Z,99050.47
2023-01-15T07:23:34.018Z,99053.94
2023-01-15T07:26:00.476Z,99045.06
2023-01-15T07:28:26.997Z,99056.22
2023-01-15T07:30:58.214Z,99075.44
2023-01-15T07:33:24.756Z,99051.72
2023-01-15T07:35:51.207Z,99063.78
2023-01-15T07:38:17.704Z,99069.66
2023-01-15T07:40:45.609Z,99083.38
2023-01-15T07:43:12.027Z,99075.56
2023-01-15T07:45:39.494Z,99090.94
2023-01-15T07:48:09.669Z,99100.00
2023-01-15T07:50:36.800Z,99079.81
2023-01-15T07:53:03.636Z,99100.06
2023-01-15T07:55:30.484Z,99079.19
2023-01-15T07:57:58.615Z,99114.72
2023-01-15T08:00:25.567Z,99116.03
2023-01-15T08:02:54.395Z,99130.13
2023-01-15T08:05:21.251Z,99135.22
2023-01-15T08:07:48.224Z,99110.69
2023-01-15T08:10:18.211Z,99124.66
2023-01-15T08:12:44.781Z,99123.25
2023-01-15T08:15:12.662Z,99127.25
2023-01-15T08:17:40.287Z,99112.50
2023-01-15T08:20:09.632Z,99131.88
2023-01-15T08:22:36.245Z,99166.72
2023-01-15T08:25:02.844Z,99174.72
2023-01-15T08:27:29.401Z,99144.59
2023-01-15T08:29:55.906Z,99143.25
2023-01-15T08:32:23.959Z,99121.69
2023-01-15T08:34:50.593Z,99145.44
2023-01-15T08:37:17.262Z,99153.06
2023-01-15T08:39:43.837Z,99157.38
2023-01-15T08:42:10.387Z,99161.84
2023-01-15T08:44:37.076Z,99167.69
2023-01-15T08:47:03.824Z,99162.38
2023-01-15T08:49:32.036Z,99161.06
2023-01-15T08:51:58.943Z,99137.81
2023-01-15T08:54:25.490Z,99149.13
2023-01-15T08:56:52.095Z,99144.28
2023-01-15T08:59:18.936Z,99163.53
2023-01-15T09:01:45.707Z,99160.19
2023-01-15T09:04:14.824Z,99160.22
2023-01-15T09:06:43.664Z,99159.88
2023-01-15T09:09:10.726Z,99165.84
2023-01-15T09:11:37.519Z,99174.47
2023-01-15T09:14:04.061Z,99169.13
2023-01-15T09:16:30.555Z,99147.75
2023-01-15T09:18:57.107Z,99157.69
2023-01-15T09:21:23.662Z,99153.84
2023-01-15T09:23:51.794Z,99108.63
2023-01-15T09:26:28.935Z,99143.03
2023-01-15T09:28:55.954Z,99151.19
2023-01-15T09:31:23.135Z,99121.31
2023-01-15T09:33:49.872Z,99121.31
2023-01-15T09:36:17.259Z,99147.28
2023-01-15T09:38:43.759Z,99144.75
2023-01-15T09:41:13.505Z,99125.81
2023-01-15T09:43:50.807Z,99155.63
2023-01-15T09:46:23.748Z,99149.00
2023-01-15T09:49:00.795Z,99159.94
2023-01-15T09:51:34.740Z,99159.94
2023-01-15T09:54:20.755Z,99169.13
2023-01-15T09:56:49.607Z,99160.19
2023-01-15T09:59:22.515Z,99166.28
2023-01-15T10:01:51.414Z,99149.75
2023-01-15T10:04:29.149Z,99138.63
2023-01-15T10:07:05.074Z,99148.06
2023-01-15T10:09:35.126Z,99131.84
2023-01-15T10:12:13.339Z,99158.50
2023-01-15T10:14:45.432Z,99154.63
2023-01-15T10:17:20.909Z,99158.41
2023-01-15T10:19:48.036Z,99176.03
2023-01-15T10:22:28.471Z,99174.75
2023-01-15T10:24:57.462Z,99172.41
2023-01-15T10:27:28.640Z,99171.75
2023-01-15T10:30:03.907Z,99155.66
2023-01-15T10:32:56.864Z,99182.69
2023-01-15T10:35:39.074Z,99163.66
2023-01-15T10:38:16.017Z,99189.88
2023-01-15T10:41:07.798Z,99189.88
2023-01-15T10:43:48.151Z,99199.50
2023-01-15T10:46:16.939Z,99203.16
2023-01-15T10:48:51.027Z,99205.22
2023-01-15T10:51:21.274Z,99191.56
2023-01-15T10:53:52.821Z,99172.81
2023-01-15T10:56:28.681Z,99200.72
2023-01-15T10:59:02.011Z,99201.00
2023-01-15T11:01:29.217Z,99206.56
2023-01-15T11:03:55.854Z,99204.81
2023-01-15T11:06:23.902Z,99183.69
2023-01-15T11:09:11.303Z,99162.59
2023-01-15T11:11:42.156Z,99196.47
2023-01-15T11:14:10.237Z,99176.63
2023-01-15T11:16:37.741Z,99203.16
2023-01-15T11:19:06.437Z,99195.63
2023-01-15T11:21:33.233Z,99206.75
2023-01-15T11:24:00.760Z,99213.56
2023-01-15T11:26:29.826Z,99202.13
2023-01-15T11:28:58.420Z,99206.66
2023-01-15T11:31:36.340Z,99207.56
2023-01-15T11:34:05.265Z,99204.63
2023-01-15T11:36:32.991Z,99199.22
2023-01-15T11:38:59.718Z,99170.25
2023-01-15T11:41:29.676Z,99186.91
2023-01-15T11:43:58.030Z,99176.06
2023-01-15T11:46:31.535Z,99183.38
2023-01-15T11:48:58.167Z,99185.16
2023-01-15T11:51:28.607Z,99188.72
2023-01-15T11:54:01.938Z,99185.13
2023-01-15T11:56:31.227Z,99183.59
2023-01-15T11:59:01.005Z,99185.97
2023-01-15T12:01:31.885Z,99187.16
2023-01-15T12:04:00.598Z,99173.59
2023-01-15T12:06:29.829Z,99159.75
2023-01-15T12:09:04.854Z,99155.16
2023-01-15T12:11:50.971Z,99150.09
2023-01-15T12:14:40.935Z,99129.34
2023-01-15T12:17:25.544Z,99146.47
2023-01-15T12:19:59.071Z,99161.06
2023-01-15T12:22:41.017Z,99170.91
2023-01-15T12:25:19.944Z,99162.25
2023-01-15T12:28:01.398Z,99136.06
2023-01-15T12:30:35.685Z,99162.91
2023-01-15T12:33:13.484Z,99159.22
2023-01-15T12:35:44.095Z,99154.63
2023-01-15T12:38:18.389Z,99152.16
2023-01-15T12:40:49.400Z,99140.09
2023-01-15T12:43:23.367Z,99156.34
2023-01-15T12:45:54.188Z,99134.69
2023-01-15T12:48:29.843Z,99144.31
2023-01-15T12:50:59.078Z,99140.31
2023-01-15T12:53:32.079Z,99132.56
2023-01-15T12:56:07.044Z,99144.25
2023-01-15T12:58:47.090Z,99153.25
2023-01-15T13:01:18.961Z,99146.63
2023-01-15T13:03:59.776Z,99144.03
2023-01-15T13:06:26.632Z,99159.47
2023-01-15T13:09:01.288Z,99126.13
2023-01-15T13:11:28.199Z,99122.84
2023-01-15T13:13:57.645Z,99137.34
2023-01-15T13:16:30.059Z,99123.00
2023-01-15T13:19:09.654Z,99138.47
2023-01-15T13:21:36.956Z,99135.44
2023-01-15T13:24:31.334Z,99148.75
2023-01-15T13:27:09.936Z,99141.97
2023-01-15T13:29:50.035Z,99136.97
2023-01-15T13:32:22.416Z,99121.09
2023-01-15T13:34:55.332Z,99130.25
2023-01-15T13:37:27.414Z,99147.38
2023-01-15T13:39:59.353Z,99162.63
2023-01-15T13:42:27.997Z,99149.84
2023-01-15T13:44:54.616Z,99160.84
2023-01-15T13:47:25.380Z,99170.16
2023-01-15T13:49:57.205Z,99164.31
2023-01-15T13:52:27.919Z,99139.75
2023-01-15T13:54:58.781Z,99177.66
2023-01-15T13:57:33.485Z,99162.06
2023-01-15T14:00:00.221Z,99159.69
2023-01-15T14:02:29.545Z,99187.44
2023-01-15T14:04:57.820Z,99189.19
2023-01-15T14:07:34.050Z,99176.13
2023-01-15T14:10:23.407Z,99188.91
2023-01-15T14:13:01.826Z,99188.63
2023-01-15T14:15:41.232Z,99191.19
2023-01-15T14:18:20.646Z,99192.28
2023-01-15T14:21:10.207Z,99193.59
2023-01-15T14:24:01.077Z,99196.91
2023-01-15T14:26:36.349Z,99199.84
2023-01-15T14:29:18.992Z,99198.19
2023-01-15T14:31:57.393Z,99192.84
2023-01-15T14:34:26.519Z,99185.13
2023-01-15T14:36:57.902Z,99209.75
2023-01-15T14:39:30.477Z,99214.69
2023-01-15T14:42:02.387Z,99201.56
2023-01-15T14:44:30.902Z,99206.34
2023-01-15T14:47:02.092Z,99212.66
2023-01-15T14:49:30.334Z,99211.81
2023-01-15T14:52:01.123Z,99206.06
2023-01-15T14:54:29.203Z,99222.09
2023-01-15T14:56:57.472Z,99232.88
2023-01-15T14:59:29.911Z,99196.66
2023-01-15T15:02:00.970Z,99220.88
2023-01-15T15:04:35.496Z,99226.09
2023-01-15T15:07:07.577Z,99219.09
2023-01-15T15:09:38.339Z,99228.72
2023-01-15T15:12:22.594Z,99221.53
2023-01-15T15:14:58.767Z,99207.94
2023-01-15T15:17:37.007Z,99237.69
2023-01-15T15:20:26.889Z,99231.47
2023-01-15T15:22:57.804Z,99222.78
2023-01-15T15:25:27.648Z,99235.66
2023-01-15T15:28:05.572Z,99219.94
2023-01-15T15:30:35.766Z,99234.00
2023-01-15T15:33:04.892Z,99232.50
2023-01-15T15:35:33.117Z,99228.00
2023-01-15T15:38:05.423Z,99227.25
2023-01-15T15:40:33.738Z,99242.06
2023-01-15T15:43:07.009Z,99245.00
2023-01-15T15:45:33.647Z,99227.16
2023-01-15T15:48:11.551Z,99245.06
2023-01-15T15:50:38.136Z,99237.28
2023-01-15T15:53:05.953Z,99233.41
2023-01-15T15:55:39.051Z,99245.75
2023-01-15T15:58:07.405Z,99241.38
2023-01-15T16:00:39.907Z,99251.94
2023-01-15T16:03:15.030Z,99243.75
2023-01-15T16:05:41.597Z,99243.72
2023-01-15T16:08:17.518Z,99245.00
2023-01-15T16:10:46.119Z,99240.56
2023-01-15T16:13:21.421Z,99243.28
2023-01-15T16:15:49.497Z,99247.84
2023-01-15T16:18:24.342Z,99245.75
2023-01-15T16:20:51.062Z,99235.63
2023-01-15T16:23:23.784Z,99238.69
2023-01-15T16:26:01.003Z,99230.41
2023-01-15T16:28:33.292Z,99233.06
2023-01-15T16:31:01.599Z,99232.06
2023-01-15T16:33:29.528Z,99226.63
2023-01-15T16:35:56.986Z,99227.91
2023-01-15T16:38:25.757Z,99232.41
2023-01-15T16:40:52.992Z,99230.47
2023-01-15T16:43:22.438Z,99227.91
2023-01-15T16:46:05.698Z,99243.66
2023-01-15T16:48:33.995Z,99235.16
2023-01-15T16:51:30.301Z,99221.06
2023-01-15T16:53:57.328Z,99239.41
2023-01-15T16:56:27.241Z,99234.25
2023-01-15T16:58:54.034Z,99239.66
2023-01-15T17:01:35.915Z,99234.75
2023-01-15T17:04:03.289Z,99250.81
2023-01-15T17:06:31.535Z,99233.31
2023-01-15T17:08:58.221Z,99236.59
2023-01-15T17:11:27.114Z,99240.06
2023-01-15T17:14:09.105Z,99251.63
2023-01-15T17:16:35.588Z,99227.88
2023-01-15T17:19:05.201Z,99250.41
2023-01-15T17:21:33.965Z,99249.56
2023-01-15T17:24:00.618Z,99269.00
2023-01-15T17:26:27.338Z,99259.59
2023-01-15T17:28:53.863Z,99278.88
2023-01-15T17:31:25.620Z,99267.44
2023-01-15T17:33:52.587Z,99282.44
2023-01-15T17:36:19.724Z,99263.31
2023-01-15T17:38:47.658Z,99239.31
2023-01-15T17:41:17.005Z,99246.09
2023-01-15T17:43:43.829Z,99238.66
2023-01-15T17:46:10.429Z,99228.53
2023-01-15T17:48:37.214Z,99237.50
2023-01-15T17:51:06.104Z,99227.84
2023-01-15T17:53:32.909Z,99242.63
2023-01-15T17:56:00.744Z,99238.44
2023-01-15T17:58:27.200Z,99245.44
2023-01-15T18:00:54.008Z,99248.06
2023-01-15T18:03:23.185Z,99244.72
2023-01-15T18:05:50.111Z,99247.56
2023-01-15T18:08:16.713Z,99239.75
2023-01-15T18:10:43.513Z,99235.47
2023-01-15T18:13:11.322Z,99234.16
2023-01-15T18:15:37.810Z,99230.84
2023-01-15T18:18:04.519Z,99244.94
2023-01-15T18:20:31.098Z,99233.47
2023-01-15T18:22:57.590Z,99231.03
2023-01-15T18:25:26.067Z,99231.75
2023-01-15T18:27:52.723Z,99222.78
2023-01-15T18:30:20.748Z,99220.50
2023-01-15T18:32:47.226Z,99221.78
2023-01-15T18:35:13.733Z,99216.94
2023-01-15T18:37:40.477Z,99222.78
2023-01-15T18:40:08.396Z,99220.94
2023-01-15T18:42:34.852Z,99220.28
2023-01-15T18:45:04.043Z,99214.66
2023-01-15T18:47:31.969Z,99212.03
2023-01-15T18:49:58.399Z,99208.84
2023-01-15T18:52:24.816Z,99209.13
2023-01-15T18:54:51.395Z,99207.88
2023-01-15T18:57:17.847Z,99207.38
2023-01-15T18:59:44.664Z,99208.53
2023-01-15T19:02:11.151Z,99207.22
2023-01-15T19:04:38.972Z,99200.22
2023-01-15T19:07:05.585Z,99208.53
2023-01-15T19:09:32.468Z,99205.22
2023-01-15T19:11:59.007Z,99197.25
2023-01-15T19:14:27.128Z,99202.41
2023-01-15T19:16:53.669Z,99193.97
2023-01-15T19:19:20.298Z,99201.94
2023-01-15T19:21:48.172Z,99193.97
2023-01-15T19:24:14.620Z,99194.13
2023-01-15T19:26:41.448Z,99191.16
2023-01-15T19:29:07.880Z,99195.31
2023-01-15T19:31:36.632Z,99184.97
2023-01-15T19:34:31.687Z,99187.34
2023-01-15T19:36:51.436Z,99182.66
2023-01-15T19:39:17.945Z,99160.44
2023-01-15T19:41:44.447Z,99170.41
2023-01-15T19:44:10.880Z,99166.91
2023-01-15T19:46:37.437Z,99163.09
2023-01-15T19:49:03.947Z,99165.91
2023-01-15T19:51:30.364Z,99161.44
2023-01-15T19:53:58.161Z,99154.63
2023-01-15T19:56:24.679Z,99154.09
2023-01-15T19:58:51.147Z,99154.09
2023-01-15T20:01:17.773Z,99157.41
2023-01-15T20:03:44.307Z,99148.78
2023-01-15T20:06:10.766Z,99148.13
2023-01-15T20:08:37.219Z,99133.22
2023-01-15T20:11:07.958Z,99136.50
2023-01-15T20:13:34.448Z,99143.47
2023-01-15T20:16:09.384Z,99124.16
2023-01-15T20:18:35.885Z,99126.81
2023-01-15T20:21:02.419Z,99117.53
2023-01-15T20:23:28.929Z,99123.69
2023-01-15T20:26:00.811Z,99116.06
2023-01-15T20:28:28.619Z,99117.00
2023-01-15T20:30:55.123Z,99103.28
2023-01-15T20:33:21.758Z,99088.97
2023-01-15T20:35:48.238Z,99081.66
2023-01-15T20:38:14.770Z,99094.72
2023-01-15T20:40:41.220Z,99084.50
2023-01-15T20:43:09.449Z,99082.16
2023-01-15T20:45:37.526Z,99082.69
2023-01-15T20:48:04.820Z,99076.53
2023-01-15T20:50:34.115Z,99082.16
2023-01-15T20:53:00.668Z,99082.28
2023-01-15T20:55:30.158Z,99071.53
2023-01-15T20:57:57.612Z,99073.66
2023-01-15T21:00:24.419Z,99067.28
2023-01-15T21:02:52.259Z,99061.38
2023-01-15T21:05:18.781Z,99055.59
2023-01-15T21:07:45.291Z,99055.94
2023-01-15T21:10:14.322Z,99040.28
2023-01-15T21:12:40.869Z,99029.41
2023-01-15T21:15:08.323Z,99045.44
2023-01-15T21:17:35.031Z,99011.16
2023-01-15T21:20:03.296Z,99018.91
2023-01-15T21:22:29.924Z,99013.56
2023-01-15T21:24:56.809Z,99015.88
2023-01-15T21:27:23.315Z,99011.88
2023-01-15T21:29:49.819Z,99020.19
2023-01-15T21:32:16.275Z,99002.06
2023-01-15T21:34:42.768Z,98997.16
2023-01-15T21:37:10.683Z,98994.03
2023-01-15T21:39:37.209Z,98996.16
2023-01-15T21:42:03.823Z,98978.19
2023-01-15T21:44:30.326Z,98973.91
2023-01-15T21:46:56.863Z,98968.72
2023-01-15T21:49:23.664Z,98967.09
2023-01-15T21:51:50.107Z,98955.94
2023-01-15T21:54:17.909Z,98958.94
2023-01-15T21:56:44.402Z,98955.84
2023-01-15T21:59:11.349Z,98961.16
2023-01-15T22:01:38.004Z,98951.22
2023-01-15T22:04:05.099Z,98936.28
2023-01-15T22:06:32.187Z,98949.72
2023-01-15T22:08:58.926Z,98945.91
2023-01-15T22:11:26.745Z,98939.09
2023-01-15T22:13:53.218Z,98938.75
2023-01-15T22:16:19.735Z,98923.34
2023-01-15T22:18:46.183Z,98922.34
2023-01-15T22:21:12.703Z,98904.63
2023-01-15T22:23:39.255Z,98908.94
2023-01-15T22:26:05.770Z,98918.78
2023-01-15T22:28:33.606Z,98916.53
2023-01-15T22:31:00.183Z,98906.94
2023-01-15T22:33:26.737Z,98901.38
2023-01-15T22:35:56.951Z,98885.75
2023-01-15T22:38:23.408Z,98885.56
2023-01-15T22:40:49.970Z,98882.25
2023-01-15T22:43:16.652Z,98880.66
2023-01-15T22:45:44.565Z,98892.09
2023-01-15T22:48:11.389Z,98879.25
2023-01-15T22:50:38.041Z,98880.53
2023-01-15T22:53:04.583Z,98868.31
2023-01-15T22:55:31.066Z,98876.22
2023-01-15T22:57:57.559Z,98881.38
2023-01-15T23:00:24.160Z,98847.38
2023-01-15T23:02:52.059Z,98835.03
2023-01-15T23:05:18.581Z,98863.22
2023-01-15T23:07:45.083Z,98863.97
2023-01-15T23:10:13.008Z,98861.53
2023-01-15T23:12:40.462Z,98853.28
2023-01-15T23:15:08.422Z,98853.75
2023-01-15T23:17:35.115Z,98834.66
2023-01-15T23:20:03.766Z,98838.19
2023-01-15T23:22:30.349Z,98830.63
2023-01-15T23:24:56.819Z,98825.22
2023-01-15T23:27:23.382Z,98830.84
2023-01-15T23:29:49.894Z,98821.91
2023-01-15T23:32:16.362Z,98818.38
2023-01-15T23:34:42.843Z,98814.91
2023-01-15T23:37:10.690Z,98810.28
2023-01-15T23:39:37.225Z,98798.78
2023-01-15T23:42:04.231Z,98805.25
2023-01-15T23:44:30.778Z,98799.69
2023-01-15T23:46:57.206Z,98789.06
2023-01-15T23:49:23.768Z,98789.72
2023-01-15T23:51:50.264Z,98790.16
2023-01-15T23:54:18.327Z,98785.72
2023-01-15T23:56:44.802Z,98784.13
2023-01-15T23:59:11.304Z,98762.84
